In Rescue
 
Open Full Screen Window  High Contrast Mode
Wind Gusting 16 knots
11
April 20, 2024 10:09 AM EDT
Weather Information
Wind Direction
  290 °
Wind Speed
  11 kt (13 mph)
Wind Gust
  16 kt (18 mph)
Altimeter
30.11 in
Visibility
10 SM
Temperature
04° C
39° F
Dewpoint
-04° C
25° F
Humidity
56%
Sky Condition
Overcast @ 6,500 ft
Broken @ 4,900 ft
Scattered @ 3,400 ft
VFR

METAR KFFX 201409Z AUTO 29011G16KT 10SM SCT034 BKN049 OVC065 04/M04 A3011 RMK AO2 T00411043

FAA Disclaimer: The data displayed is for advisory purposes only and is not to be used for flight planning or operations.